Abell, Maryland
Current Conditions -  °F | °C
As of 11:25 PM on Wednesday 28 Jan 2015 (Local Time) from K2W6 Reporting Station
Clear Clear  
Wind Chill: 28°   Ceiling: Unl
Heat Index: 28°   Visibility: 10mi
Dew Point:   Wind: 3mph
Humidity: 37%   Direction: 290°WNW
Pressure: 30.34"   Gusts: NA
Location:  38.25°N, 76.74°W
Report Text: K2W6 290425Z AUTO 29003KT 10SM CLR M02/M15 A3034 RMK AO1
Loading
Personal Weather Stations






























Interactive Weather Map New forecast layout! Learn more

10-Day Weather Forecast

Advertisements
Track Severe Weather on mobile